createdAt,value
2019-01-04T00:00:56.026Z,53.90
2019-01-04T00:03:25.695Z,54.10
2019-01-04T00:05:55.372Z,53.80
2019-01-04T00:08:25.127Z,53.80
2019-01-04T00:10:54.793Z,54.40
2019-01-04T00:13:24.435Z,53.90
2019-01-04T00:15:54.091Z,53.80
2019-01-04T00:18:23.815Z,53.80
2019-01-04T00:20:53.466Z,53.70
2019-01-04T00:23:23.186Z,53.90
2019-01-04T00:25:52.838Z,53.50
2019-01-04T00:28:22.574Z,53.50
2019-01-04T00:30:52.254Z,53.50
2019-01-04T00:33:21.930Z,53.60
2019-01-04T00:35:51.662Z,53.80
2019-01-04T00:38:21.317Z,53.90
2019-01-04T00:40:51.038Z,53.70
2019-01-04T00:43:20.786Z,54.00
2019-01-04T00:45:50.443Z,53.80
2019-01-04T00:48:20.270Z,54.00
2019-01-04T00:50:49.931Z,54.10
2019-01-04T00:53:19.683Z,54.30
2019-01-04T00:56:41.223Z,54.40
2019-01-04T01:00:02.713Z,54.30
2019-01-04T01:03:05.648Z,54.10
2019-01-04T01:06:06.370Z,54.40
2019-01-04T01:09:04.290Z,54.80
2019-01-04T01:12:08.994Z,54.70
2019-01-04T01:15:13.935Z,54.80
2019-01-04T01:18:23.366Z,55.30
2019-01-04T01:21:28.994Z,55.10
2019-01-04T01:24:37.468Z,55.60
2019-01-04T01:27:48.724Z,55.70
2019-01-04T01:30:49.449Z,55.40
2019-01-04T01:33:48.778Z,55.30
2019-01-04T01:36:59.921Z,55.20
2019-01-04T01:40:13.761Z,55.30
2019-01-04T01:43:36.950Z,55.20
2019-01-04T01:46:37.792Z,55.50
2019-01-04T01:49:56.030Z,55.50
2019-01-04T01:52:30.029Z,55.30
2019-01-04T01:54:59.683Z,54.90
2019-01-04T01:57:29.335Z,54.90
2019-01-04T01:59:58.998Z,54.80
2019-01-04T02:02:28.720Z,54.60
2019-01-04T02:04:58.376Z,54.90
2019-01-04T02:07:28.023Z,54.70
2019-01-04T02:09:58.711Z,54.50
2019-01-04T02:12:28.369Z,54.40
2019-01-04T02:14:58.025Z,54.20
2019-01-04T02:17:27.813Z,54.30
2019-01-04T02:19:57.473Z,54.20
2019-01-04T02:22:27.148Z,54.20
2019-01-04T02:24:57.035Z,54.20
2019-01-04T02:27:27.651Z,54.10
2019-01-04T02:29:57.310Z,54.20
2019-01-04T02:32:26.971Z,54.00
2019-01-04T02:34:56.617Z,54.20
2019-01-04T02:37:26.283Z,54.20
2019-01-04T02:39:55.923Z,54.20
2019-01-04T02:42:26.563Z,54.30
2019-01-04T02:44:56.208Z,54.40
2019-01-04T02:47:25.863Z,54.60
2019-01-04T02:49:55.523Z,54.60
2019-01-04T02:52:25.179Z,54.50
2019-01-04T02:54:54.831Z,54.20
2019-01-04T02:57:24.488Z,53.80
2019-01-04T02:59:54.211Z,53.70
2019-01-04T03:02:23.866Z,54.00
2019-01-04T03:04:53.516Z,53.80
2019-01-04T03:07:23.178Z,53.90
2019-01-04T03:09:53.018Z,54.10
2019-01-04T03:12:22.691Z,54.20
2019-01-04T03:14:52.344Z,54.00
2019-01-04T03:17:22.068Z,54.00
2019-01-04T03:19:51.722Z,54.20
2019-01-04T03:22:21.378Z,54.60
2019-01-04T03:24:51.032Z,54.70
2019-01-04T03:27:20.682Z,54.90
2019-01-04T03:29:50.332Z,55.30
2019-01-04T03:32:19.983Z,56.00
2019-01-04T03:34:49.626Z,54.90
2019-01-04T03:37:19.370Z,55.10
2019-01-04T03:39:49.024Z,54.60
2019-01-04T03:42:18.854Z,54.60
2019-01-04T03:44:48.502Z,54.50
2019-01-04T03:47:18.191Z,54.90
2019-01-04T03:49:59.773Z,54.70
2019-01-04T03:52:29.519Z,54.50
2019-01-04T03:54:59.167Z,54.40
2019-01-04T03:57:28.830Z,54.10
2019-01-04T03:59:58.487Z,54.20
2019-01-04T04:02:28.138Z,54.30
2019-01-04T04:04:57.807Z,54.30
2019-01-04T04:07:27.453Z,54.20
2019-01-04T04:09:57.116Z,54.40
2019-01-04T04:12:26.764Z,54.60
2019-01-04T04:14:56.433Z,55.10
2019-01-04T04:17:26.070Z,55.10
2019-01-04T04:19:55.727Z,55.00
2019-01-04T04:22:25.376Z,55.00
2019-01-04T04:24:55.038Z,54.80
2019-01-04T04:27:24.683Z,54.60
2019-01-04T04:29:54.330Z,55.20
2019-01-04T04:32:24.023Z,54.70
2019-01-04T04:34:53.687Z,54.70
2019-01-04T04:37:23.322Z,54.70
2019-01-04T04:39:52.974Z,54.90
2019-01-04T04:42:22.637Z,54.90
2019-01-04T04:44:52.293Z,54.80
2019-01-04T04:47:21.954Z,55.10
2019-01-04T04:49:51.618Z,55.40
2019-01-04T04:52:21.309Z,55.40
2019-01-04T04:54:50.964Z,55.50
2019-01-04T04:57:20.614Z,55.70
2019-01-04T04:59:50.279Z,55.50
2019-01-04T05:02:19.918Z,55.70
2019-01-04T05:04:49.579Z,55.50
2019-01-04T05:07:19.232Z,55.30
2019-01-04T05:09:48.927Z,55.40
2019-01-04T05:12:18.571Z,55.20
2019-01-04T05:14:48.251Z,55.40
2019-01-04T05:17:17.912Z,55.40
2019-01-04T05:19:47.575Z,55.50
2019-01-04T05:22:17.232Z,55.40
2019-01-04T05:24:46.891Z,56.10
2019-01-04T05:27:16.546Z,55.20
2019-01-04T05:29:46.199Z,55.30
2019-01-04T05:32:15.855Z,55.50
2019-01-04T05:34:45.579Z,56.00
2019-01-04T05:37:15.311Z,55.90
2019-01-04T05:39:44.951Z,55.60
2019-01-04T05:42:14.602Z,55.20
2019-01-04T05:44:44.281Z,55.50
2019-01-04T05:47:13.935Z,55.80
2019-01-04T05:49:44.559Z,55.50
2019-01-04T05:52:14.218Z,57.00
2019-01-04T05:54:43.908Z,57.20
2019-01-04T05:57:19.110Z,57.40
2019-01-04T05:59:48.781Z,56.20
2019-01-04T06:02:18.435Z,55.60
2019-01-04T06:04:48.073Z,55.30
2019-01-04T06:07:17.743Z,54.90
2019-01-04T06:09:47.396Z,54.60
2019-01-04T06:12:17.050Z,54.50
2019-01-04T06:14:46.751Z,54.10
2019-01-04T06:17:16.422Z,54.20
2019-01-04T06:19:46.074Z,54.10
2019-01-04T06:22:15.731Z,53.90
2019-01-04T06:24:45.375Z,53.90
2019-01-04T06:27:15.135Z,53.90
2019-01-04T06:29:44.786Z,53.80
2019-01-04T06:32:14.474Z,53.80
2019-01-04T06:34:44.147Z,53.60
2019-01-04T06:37:13.796Z,53.60
2019-01-04T06:39:43.535Z,53.60
2019-01-04T06:42:13.191Z,53.90
2019-01-04T06:44:43.821Z,53.80
2019-01-04T06:47:17.790Z,53.80
2019-01-04T06:49:48.439Z,53.60
2019-01-04T06:52:19.006Z,54.10
2019-01-04T06:55:39.318Z,53.90
2019-01-04T06:58:09.064Z,53.80
2019-01-04T07:00:38.719Z,53.20
2019-01-04T07:03:08.374Z,53.30
2019-01-04T07:05:38.108Z,53.50
2019-01-04T07:08:07.834Z,54.10
2019-01-04T07:10:40.315Z,53.80
2019-01-04T07:13:10.014Z,53.80
2019-01-04T07:15:40.345Z,53.80
2019-01-04T07:18:10.549Z,53.50
2019-01-04T07:20:40.213Z,53.60
2019-01-04T07:23:10.281Z,53.90
2019-01-04T07:25:40.071Z,54.10
2019-01-04T07:28:12.605Z,53.90
2019-01-04T07:30:42.271Z,53.70
2019-01-04T07:33:11.918Z,53.70
2019-01-04T07:35:41.580Z,53.70
2019-01-04T07:38:11.299Z,53.60
2019-01-04T07:40:40.967Z,54.20
2019-01-04T07:43:16.292Z,55.00
2019-01-04T07:45:42.027Z,54.80
2019-01-04T07:48:11.679Z,54.80
2019-01-04T07:50:41.351Z,54.70
2019-01-04T07:53:10.995Z,54.50
2019-01-04T07:55:40.663Z,54.40
2019-01-04T07:58:10.395Z,54.60
2019-01-04T08:00:40.042Z,54.50
2019-01-04T08:03:16.806Z,54.20
2019-01-04T08:05:46.573Z,54.00
2019-01-04T08:08:16.219Z,54.10
2019-01-04T08:10:45.871Z,54.00
2019-01-04T08:13:15.523Z,54.00
2019-01-04T08:15:45.174Z,53.60
2019-01-04T08:18:14.833Z,54.00
2019-01-04T08:20:44.514Z,53.80
2019-01-04T08:23:14.146Z,54.20
2019-01-04T08:25:43.894Z,54.00
2019-01-04T08:28:13.538Z,54.00
2019-01-04T08:30:43.203Z,53.80
2019-01-04T08:33:12.846Z,53.80
2019-01-04T08:35:42.542Z,53.70
2019-01-04T08:38:12.195Z,53.70
2019-01-04T08:40:41.867Z,53.70
2019-01-04T08:43:11.506Z,54.30
2019-01-04T08:45:41.167Z,55.10
2019-01-04T08:48:10.893Z,54.70
2019-01-04T08:50:40.876Z,54.30
2019-01-04T08:53:10.602Z,54.30
2019-01-04T08:55:41.245Z,54.30
2019-01-04T08:58:10.939Z,54.00
2019-01-04T09:00:40.651Z,53.90
2019-01-04T09:03:10.327Z,54.50
2019-01-04T09:05:39.974Z,55.50
2019-01-04T09:08:09.634Z,58.00
2019-01-04T09:10:39.314Z,56.40
2019-01-04T09:13:09.040Z,55.80
2019-01-04T09:15:38.763Z,55.50
2019-01-04T09:18:08.499Z,56.30
2019-01-04T09:20:38.142Z,56.70
2019-01-04T09:23:07.814Z,57.10
2019-01-04T09:25:37.543Z,57.30
2019-01-04T09:28:07.203Z,56.60
2019-01-04T09:30:36.879Z,56.30
2019-01-04T09:33:06.542Z,55.90
2019-01-04T09:35:36.188Z,55.70
2019-01-04T09:38:05.887Z,54.80
2019-01-04T09:40:35.534Z,57.00
2019-01-04T09:43:05.282Z,55.80
2019-01-04T09:45:34.922Z,54.20
2019-01-04T09:48:04.727Z,53.60
2019-01-04T09:50:34.378Z,52.20
2019-01-04T09:53:04.046Z,53.70
2019-01-04T09:55:33.690Z,54.90
2019-01-04T09:58:03.354Z,54.60
2019-01-04T10:00:32.998Z,54.50
2019-01-04T10:03:02.694Z,54.40
2019-01-04T10:05:32.347Z,54.70
2019-01-04T10:08:01.999Z,54.70
2019-01-04T10:10:31.646Z,54.00
2019-01-04T10:13:01.314Z,55.50
2019-01-04T10:15:30.955Z,54.40
2019-01-04T10:18:00.619Z,54.40
2019-01-04T10:20:30.266Z,54.70
2019-01-04T10:22:59.918Z,54.00
2019-01-04T10:25:29.563Z,54.70
2019-01-04T10:27:59.298Z,54.60
2019-01-04T10:30:28.949Z,53.50
2019-01-04T10:32:59.356Z,53.70
2019-01-04T10:35:29.029Z,53.10
2019-01-04T10:37:58.751Z,53.30
2019-01-04T10:40:28.394Z,53.50
2019-01-04T10:42:58.047Z,53.10
2019-01-04T10:45:27.710Z,52.80
2019-01-04T10:47:57.359Z,57.30
2019-01-04T10:50:27.023Z,60.70
2019-01-04T10:52:56.682Z,64.90
2019-01-04T10:55:26.455Z,65.90
2019-01-04T10:57:56.099Z,64.40
2019-01-04T11:00:25.903Z,65.00
2019-01-04T11:02:55.611Z,65.10
2019-01-04T11:05:25.270Z,63.90
2019-01-04T11:07:54.930Z,64.80
2019-01-04T11:10:24.660Z,64.30
2019-01-04T11:12:54.314Z,63.00
2019-01-04T11:15:23.966Z,64.70
2019-01-04T11:17:53.730Z,61.60
2019-01-04T11:20:41.410Z,60.40
2019-01-04T11:23:51.062Z,59.80
2019-01-04T11:26:45.974Z,60.90
2019-01-04T11:30:18.047Z,58.40
2019-01-04T11:33:40.853Z,58.60
2019-01-04T11:36:48.350Z,57.90
2019-01-04T11:39:48.320Z,58.10
2019-01-04T11:43:11.267Z,57.50
2019-01-04T11:45:51.510Z,57.80
2019-01-04T11:48:49.763Z,57.70
2019-01-04T11:52:09.819Z,57.50
2019-01-04T11:54:39.503Z,56.50
2019-01-04T11:57:09.222Z,57.30
2019-01-04T11:59:39.625Z,57.20
2019-01-04T12:02:09.303Z,57.40
2019-01-04T12:04:39.029Z,57.40
2019-01-04T12:07:08.768Z,57.30
2019-01-04T12:09:38.463Z,56.80
2019-01-04T12:12:08.154Z,57.10
2019-01-04T12:14:41.392Z,56.70
2019-01-04T12:17:09.152Z,57.40
2019-01-04T12:19:38.807Z,56.50
2019-01-04T12:22:08.552Z,56.50
2019-01-04T12:24:38.202Z,56.90
2019-01-04T12:27:07.867Z,56.20
2019-01-04T12:29:37.506Z,56.70
2019-01-04T12:32:07.158Z,56.80
2019-01-04T12:34:36.815Z,57.00
2019-01-04T12:37:07.188Z,56.70
2019-01-04T12:39:36.903Z,56.30
2019-01-04T12:42:06.655Z,56.90
2019-01-04T12:44:36.307Z,56.50
2019-01-04T12:47:06.011Z,56.70
2019-01-04T12:49:35.663Z,57.20
2019-01-04T12:52:05.322Z,56.60
2019-01-04T12:54:34.967Z,56.80
2019-01-04T12:57:04.836Z,56.20
2019-01-04T12:59:34.483Z,55.70
2019-01-04T13:02:04.183Z,55.60
2019-01-04T13:04:33.847Z,56.10
2019-01-04T13:07:03.498Z,56.50
2019-01-04T13:09:33.154Z,55.80
2019-01-04T13:12:02.803Z,56.60
2019-01-04T13:14:32.463Z,55.90
2019-01-04T13:17:02.115Z,55.70
2019-01-04T13:19:31.784Z,55.70
2019-01-04T13:22:01.438Z,55.80
2019-01-04T13:24:31.123Z,55.90
2019-01-04T13:27:01.582Z,56.00
2019-01-04T13:29:31.258Z,55.20
2019-01-04T13:32:00.917Z,55.70
2019-01-04T13:34:30.650Z,55.50
2019-01-04T13:37:00.297Z,55.90
2019-01-04T13:39:29.959Z,55.40
2019-01-04T13:41:59.689Z,56.10
2019-01-04T13:44:29.343Z,55.80
2019-01-04T13:46:58.995Z,55.90
2019-01-04T13:49:28.677Z,56.00
2019-01-04T13:51:58.823Z,55.50
2019-01-04T13:54:28.554Z,56.40
2019-01-04T13:56:58.198Z,56.10
2019-01-04T13:59:27.864Z,55.90
2019-01-04T14:01:57.514Z,55.80
2019-01-04T14:04:27.166Z,56.20
2019-01-04T14:06:56.918Z,55.50
2019-01-04T14:09:26.607Z,55.60
2019-01-04T14:11:56.247Z,56.50
2019-01-04T14:14:25.899Z,55.80
2019-01-04T14:16:55.562Z,55.40
2019-01-04T14:19:25.229Z,55.60
2019-01-04T14:21:54.891Z,55.40
2019-01-04T14:24:24.555Z,56.30
2019-01-04T14:26:54.230Z,55.60
2019-01-04T14:29:23.878Z,55.80
2019-01-04T14:31:53.542Z,56.40
2019-01-04T14:34:23.262Z,56.70
2019-01-04T14:36:52.995Z,57.10
2019-01-04T14:39:22.731Z,57.10
2019-01-04T14:41:52.548Z,57.40
2019-01-04T14:44:22.290Z,57.10
2019-01-04T14:46:51.952Z,56.50
2019-01-04T14:49:21.599Z,56.20
2019-01-04T14:51:51.266Z,56.30
2019-01-04T14:54:20.914Z,55.80
2019-01-04T14:56:51.043Z,55.70
2019-01-04T14:59:20.767Z,56.30
2019-01-04T15:01:50.434Z,55.20
2019-01-04T15:04:20.079Z,55.10
2019-01-04T15:06:49.736Z,55.10
2019-01-04T15:09:19.383Z,55.30
2019-01-04T15:11:49.048Z,55.60
2019-01-04T15:14:18.693Z,56.90
2019-01-04T15:16:48.351Z,58.20
2019-01-04T15:19:17.999Z,56.80
2019-01-04T15:21:47.658Z,57.70
2019-01-04T15:24:17.309Z,57.00
2019-01-04T15:26:46.975Z,56.20
2019-01-04T15:29:16.627Z,56.90
2019-01-04T15:31:46.288Z,55.80
2019-01-04T15:34:16.151Z,57.10
2019-01-04T15:36:45.802Z,57.20
2019-01-04T15:39:15.454Z,56.40
2019-01-04T15:41:45.122Z,56.50
2019-01-04T15:44:14.762Z,56.90
2019-01-04T15:46:44.446Z,55.90
2019-01-04T15:49:14.090Z,56.50
2019-01-04T15:51:43.751Z,56.10
2019-01-04T15:54:13.406Z,56.90
2019-01-04T15:56:43.132Z,56.10
2019-01-04T15:59:12.804Z,56.00
2019-01-04T16:01:42.530Z,56.30
2019-01-04T16:04:12.198Z,56.40
2019-01-04T16:06:41.850Z,56.00
2019-01-04T16:09:11.507Z,56.10
2019-01-04T16:11:41.215Z,56.00
2019-01-04T16:14:10.879Z,55.70
2019-01-04T16:16:40.522Z,55.70
2019-01-04T16:19:10.195Z,56.10
2019-01-04T16:21:39.983Z,56.20
2019-01-04T16:24:09.661Z,56.40
2019-01-04T16:26:39.394Z,56.00
2019-01-04T16:29:09.061Z,56.80
2019-01-04T16:31:38.714Z,56.00
2019-01-04T16:34:08.395Z,56.20
2019-01-04T16:36:38.042Z,55.90
2019-01-04T16:39:08.986Z,55.90
2019-01-04T16:41:38.634Z,55.80
2019-01-04T16:44:08.298Z,56.20
2019-01-04T16:46:37.939Z,56.30
2019-01-04T16:49:07.682Z,55.90
2019-01-04T16:51:40.279Z,55.50
2019-01-04T16:54:10.011Z,56.00
2019-01-04T16:56:39.667Z,56.30
2019-01-04T16:59:09.327Z,55.30
2019-01-04T17:01:38.982Z,55.90
2019-01-04T17:04:08.811Z,56.30
2019-01-04T17:06:38.463Z,56.00
2019-01-04T17:09:08.616Z,55.40
2019-01-04T17:11:38.271Z,56.00
2019-01-04T17:14:07.935Z,56.10
2019-01-04T17:16:37.676Z,57.10
2019-01-04T17:19:07.342Z,56.90
2019-01-04T17:21:37.078Z,55.70
2019-01-04T17:24:06.740Z,56.60
2019-01-04T17:26:36.412Z,56.00
2019-01-04T17:29:06.134Z,56.50
2019-01-04T17:31:36.038Z,56.60
2019-01-04T17:34:12.066Z,56.10
2019-01-04T17:36:41.727Z,56.40
2019-01-04T17:39:12.330Z,56.50
2019-01-04T17:41:42.001Z,56.60
2019-01-04T17:44:11.713Z,56.10
2019-01-04T17:46:41.423Z,56.00
2019-01-04T17:49:11.067Z,56.20
2019-01-04T17:51:40.737Z,56.40
2019-01-04T17:54:10.464Z,56.70
2019-01-04T17:56:40.122Z,56.90
2019-01-04T17:59:09.774Z,56.50
2019-01-04T18:01:39.430Z,56.60
2019-01-04T18:04:09.232Z,56.40
2019-01-04T18:06:38.899Z,55.80
2019-01-04T18:09:08.617Z,56.70
2019-01-04T18:11:38.287Z,56.70
2019-01-04T18:14:07.936Z,56.70
2019-01-04T18:16:38.567Z,57.00
2019-01-04T18:19:08.215Z,56.90
2019-01-04T18:21:37.866Z,56.90
2019-01-04T18:24:07.523Z,57.00
2019-01-04T18:26:37.181Z,56.90
2019-01-04T18:29:06.832Z,55.90
2019-01-04T18:31:37.469Z,56.90
2019-01-04T18:34:07.715Z,56.20
2019-01-04T18:36:37.408Z,57.10
2019-01-04T18:39:07.319Z,56.60
2019-01-04T18:41:36.983Z,56.50
2019-01-04T18:44:07.608Z,57.00
2019-01-04T18:46:37.258Z,57.00
2019-01-04T18:49:06.914Z,56.60
2019-01-04T18:51:36.567Z,56.80
2019-01-04T18:54:06.232Z,56.20
2019-01-04T18:56:35.950Z,56.40
2019-01-04T18:59:05.623Z,56.50
2019-01-04T19:01:35.262Z,56.80
2019-01-04T19:04:04.995Z,56.60
2019-01-04T19:06:34.651Z,57.00
2019-01-04T19:09:06.159Z,56.40
2019-01-04T19:11:35.887Z,56.80
2019-01-04T19:14:05.690Z,57.50
2019-01-04T19:16:35.359Z,56.80
2019-01-04T19:19:05.006Z,56.90
2019-01-04T19:21:34.707Z,56.10
2019-01-04T19:24:04.535Z,56.70
2019-01-04T19:26:34.199Z,56.60
2019-01-04T19:29:03.919Z,56.60
2019-01-04T19:31:34.535Z,56.80
2019-01-04T19:34:04.195Z,56.90
2019-01-04T19:36:33.930Z,56.80
2019-01-04T19:39:07.326Z,56.70
2019-01-04T19:41:37.034Z,56.80
2019-01-04T19:44:06.699Z,56.80
2019-01-04T19:46:36.367Z,56.90
2019-01-04T19:49:06.059Z,56.80
2019-01-04T19:51:35.710Z,57.10
2019-01-04T19:54:05.522Z,56.70
2019-01-04T19:56:35.204Z,56.80
2019-01-04T19:59:06.125Z,57.20
2019-01-04T20:01:35.786Z,56.70
2019-01-04T20:04:08.548Z,57.30
2019-01-04T20:07:10.387Z,57.60
2019-01-04T20:10:29.584Z,57.10
2019-01-04T20:13:55.611Z,56.80
2019-01-04T20:16:50.614Z,57.10
2019-01-04T20:19:48.254Z,57.70
2019-01-04T20:22:44.750Z,57.70
2019-01-04T20:25:48.800Z,58.30
2019-01-04T20:28:36.206Z,58.10
2019-01-04T20:31:43.269Z,57.70
2019-01-04T20:34:39.655Z,57.90
2019-01-04T20:37:26.931Z,58.10
2019-01-04T20:40:25.483Z,58.10
2019-01-04T20:43:15.773Z,57.90
2019-01-04T20:45:56.175Z,58.10
2019-01-04T20:48:50.787Z,58.00
2019-01-04T20:51:38.761Z,57.80
2019-01-04T20:54:35.626Z,57.40
2019-01-04T20:57:27.458Z,57.60
2019-01-04T21:00:21.704Z,57.50
2019-01-04T21:03:14.107Z,58.00
2019-01-04T21:06:01.370Z,57.60
2019-01-04T21:08:50.108Z,57.50
2019-01-04T21:11:56.834Z,57.90
2019-01-04T21:14:44.238Z,57.00
2019-01-04T21:17:31.499Z,57.60
2019-01-04T21:20:23.900Z,57.90
2019-01-04T21:23:10.657Z,57.90
2019-01-04T21:25:51.514Z,57.60
2019-01-04T21:28:43.109Z,57.80
2019-01-04T21:31:36.258Z,57.50
2019-01-04T21:34:28.692Z,57.40
2019-01-04T21:37:20.471Z,56.60
2019-01-04T21:40:07.914Z,56.90
2019-01-04T21:42:48.415Z,56.80
2019-01-04T21:45:35.870Z,56.90
2019-01-04T21:48:22.750Z,57.30
2019-01-04T21:51:14.522Z,56.90
2019-01-04T21:54:14.135Z,57.10
2019-01-04T21:57:01.757Z,56.90
2019-01-04T21:59:56.678Z,57.50
2019-01-04T22:02:34.619Z,57.30
2019-01-04T22:05:27.959Z,57.30
2019-01-04T22:08:15.194Z,57.90
2019-01-04T22:11:06.954Z,57.70
2019-01-04T22:14:04.570Z,57.80
2019-01-04T22:17:05.148Z,58.00
2019-01-04T22:19:52.359Z,57.90
2019-01-04T22:22:59.280Z,57.90
2019-01-04T22:25:46.462Z,57.40
2019-01-04T22:28:50.098Z,58.20
2019-01-04T22:31:38.987Z,57.80
2019-01-04T22:34:36.628Z,57.40
2019-01-04T22:37:26.251Z,57.90
2019-01-04T22:40:24.303Z,57.60
2019-01-04T22:43:07.587Z,57.10
2019-01-04T22:46:02.526Z,57.30
2019-01-04T22:49:00.894Z,57.70
2019-01-04T22:51:48.332Z,57.60
2019-01-04T22:54:35.856Z,57.60
2019-01-04T22:57:23.194Z,57.90
2019-01-04T23:00:10.722Z,57.50
2019-01-04T23:03:16.257Z,57.20
2019-01-04T23:06:01.624Z,57.60
2019-01-04T23:09:01.051Z,57.00
2019-01-04T23:11:49.978Z,57.10
2019-01-04T23:14:39.018Z,57.70
2019-01-04T23:17:26.538Z,57.70
2019-01-04T23:20:18.299Z,57.90
2019-01-04T23:23:09.836Z,58.20
2019-01-04T23:26:01.583Z,58.40
2019-01-04T23:28:48.963Z,58.60
2019-01-04T23:31:36.187Z,58.20
2019-01-04T23:34:27.898Z,57.90
2019-01-04T23:37:14.944Z,58.00
2019-01-04T23:40:02.323Z,58.00
2019-01-04T23:43:00.079Z,57.80
2019-01-04T23:45:47.855Z,58.20
2019-01-04T23:48:35.279Z,58.30
2019-01-04T23:51:15.798Z,57.90
2019-01-04T23:54:10.403Z,58.20
2019-01-04T23:56:57.507Z,58.70
2019-01-04T23:59:44.682Z,58.70
